Time;durP1;ratioP1;P1;durP2;ratioP2;P2;SDS_P1;SDS_P2;PMS_P1;PMS_P2;Temp;Humidity;BMP_temperature;BMP_pressure;BME280_temperature;BME280_humidity;BME280_pressure;Samples;Min_cycle;Max_cycle;Signal;HPM_P1;HPM_P2
2023/01/12 00:01:18;;;;;;;;;;;20.20;59.00;;;;;;1576936;74;701;-68
2023/01/12 00:03:20;;;;;;;;;;;20.20;59.10;;;;;;1577593;74;1182;-70
2023/01/12 00:05:22;;;;;;;;;;;20.10;59.00;;;;;;1585403;74;725;-70
2023/01/12 00:07:24;;;;;;;;;;;20.20;58.90;;;;;;1584648;74;762;-70
2023/01/12 00:09:26;;;;;;;;;;;20.20;58.90;;;;;;1583096;74;806;-70
2023/01/12 00:11:28;;;;;;;;;;;20.20;58.90;;;;;;1579385;74;777;-71
2023/01/12 00:13:30;;;;;;;;;;;20.10;58.90;;;;;;1576135;73;1946;-69
2023/01/12 00:16:33;;;;;;;;;;;20.20;58.90;;;;;;1583501;74;723;-68
2023/01/12 00:17:39;;;;;;;;;;;20.20;59.10;;;;;;1571543;74;1534;-71
2023/01/12 00:19:41;;;;;;;;;;;20.10;59.40;;;;;;1585950;74;702;-71
2023/01/12 00:21:45;;;;;;;;;;;20.10;59.50;;;;;;1575245;74;690;-71
2023/01/12 00:23:47;;;;;;;;;;;20.10;59.50;;;;;;1584373;74;753;-70
2023/01/12 00:25:53;;;;;;;;;;;20.00;59.50;;;;;;1596437;74;721;-69
2023/01/12 00:27:54;;;;;;;;;;;20.10;59.40;;;;;;1573312;74;798;-68
2023/01/12 00:29:56;;;;;;;;;;;20.00;59.30;;;;;;1572608;74;780;-70
2023/01/12 00:31:59;;;;;;;;;;;20.10;59.70;;;;;;1575564;74;1154;-70
2023/01/12 00:34:01;;;;;;;;;;;20.00;59.50;;;;;;1578663;74;1930;-70
2023/01/12 00:36:03;;;;;;;;;;;20.00;59.70;;;;;;1582406;74;726;-71
2023/01/12 00:38:05;;;;;;;;;;;20.10;60.00;;;;;;1577837;74;793;-70
2023/01/12 00:40:08;;;;;;;;;;;20.10;59.80;;;;;;1582586;74;841;-69
2023/01/12 00:46:51;;;;;;;;;;;20.10;59.80;;;;;;1569817;74;1635;-72
2023/01/12 00:48:53;;;;;;;;;;;20.00;59.60;;;;;;1588302;74;750;-70
2023/01/12 00:50:55;;;;;;;;;;;20.10;59.90;;;;;;1590295;74;741;-71
2023/01/12 00:52:57;;;;;;;;;;;20.10;59.80;;;;;;1569012;74;1547;-70
2023/01/12 00:54:59;;;;;;;;;;;20.00;59.70;;;;;;1581194;74;1936;-71
2023/01/12 00:57:01;;;;;;;;;;;20.00;59.80;;;;;;1592939;74;729;-71
2023/01/12 00:59:03;;;;;;;;;;;20.00;59.70;;;;;;1578293;74;744;-71
2023/01/12 01:01:08;;;;;;;;;;;20.00;59.90;;;;;;1587314;74;800;-71
2023/01/12 01:03:10;;;;;;;;;;;20.00;59.60;;;;;;1579738;74;1178;-72
2023/01/12 01:05:12;;;;;;;;;;;20.00;59.60;;;;;;1589819;74;716;-69
2023/01/12 01:07:14;;;;;;;;;;;20.10;59.70;;;;;;1572025;74;795;-72
2023/01/12 01:09:16;;;;;;;;;;;20.00;59.70;;;;;;1577846;74;753;-71
2023/01/12 01:11:18;;;;;;;;;;;20.00;59.50;;;;;;1579607;74;771;-72
2023/01/12 01:13:20;;;;;;;;;;;20.00;60.10;;;;;;1572752;74;1954;-70
2023/01/12 01:15:22;;;;;;;;;;;20.00;60.00;;;;;;1574108;74;685;-72
2023/01/12 01:17:24;;;;;;;;;;;20.00;60.30;;;;;;1594178;74;860;-72
2023/01/12 01:19:26;;;;;;;;;;;20.00;60.50;;;;;;1591206;74;728;-72
2023/01/12 01:21:28;;;;;;;;;;;20.00;60.20;;;;;;1573545;74;759;-71
2023/01/12 01:23:31;;;;;;;;;;;20.00;60.10;;;;;;1584582;74;1122;-71
2023/01/12 01:25:33;;;;;;;;;;;20.00;60.20;;;;;;1559040;75;873;-71
2023/01/12 01:27:35;;;;;;;;;;;20.00;60.20;;;;;;1579601;74;743;-69
2023/01/12 01:29:36;;;;;;;;;;;20.00;60.50;;;;;;1587259;74;734;-71
2023/01/12 01:31:38;;;;;;;;;;;19.90;60.40;;;;;;1582338;74;891;-70
2023/01/12 01:33:40;;;;;;;;;;;20.00;60.40;;;;;;1582346;73;1969;-71
2023/01/12 01:35:42;;;;;;;;;;;20.00;60.50;;;;;;1570358;74;730;-71
2023/01/12 01:37:44;;;;;;;;;;;20.00;60.60;;;;;;1567409;74;788;-71
2023/01/12 01:39:46;;;;;;;;;;;20.00;60.60;;;;;;1575138;74;728;-71
2023/01/12 01:41:48;;;;;;;;;;;20.00;60.60;;;;;;1599866;74;1135;-71
2023/01/12 01:43:54;;;;;;;;;;;20.00;60.50;;;;;;1582918;73;810;-71
2023/01/12 01:45:58;;;;;;;;;;;19.90;60.60;;;;;;1582792;74;1070;-70
2023/01/12 01:48:00;;;;;;;;;;;19.90;60.70;;;;;;1584005;74;721;-70
2023/01/12 01:50:03;;;;;;;;;;;19.90;60.60;;;;;;1567583;74;1537;-70
2023/01/12 01:52:05;;;;;;;;;;;19.90;60.60;;;;;;1574884;74;1084;-71
2023/01/12 01:54:07;;;;;;;;;;;19.90;60.60;;;;;;1568208;74;1964;-71
2023/01/12 01:56:13;;;;;;;;;;;19.90;60.50;;;;;;1578167;74;758;-70
2023/01/12 01:58:16;;;;;;;;;;;19.90;60.80;;;;;;1580646;74;1774;-71
2023/01/12 02:00:18;;;;;;;;;;;19.90;60.70;;;;;;1577664;74;740;-68
2023/01/12 02:02:20;;;;;;;;;;;19.90;60.70;;;;;;1592724;74;1174;-70
2023/01/12 02:04:22;;;;;;;;;;;19.90;60.70;;;;;;1583196;74;753;-71
2023/01/12 02:06:25;;;;;;;;;;;19.90;60.70;;;;;;1593367;74;734;-71
2023/01/12 02:08:28;;;;;;;;;;;19.90;60.70;;;;;;1593362;74;813;-72
2023/01/12 02:10:30;;;;;;;;;;;19.90;60.70;;;;;;1570393;73;1557;-72
2023/01/12 02:17:13;;;;;;;;;;;19.90;60.60;;;;;;1566094;74;1674;-71
2023/01/12 02:19:17;;;;;;;;;;;19.90;60.70;;;;;;1579979;74;778;-71
2023/01/12 02:21:20;;;;;;;;;;;19.90;60.70;;;;;;1573085;74;1496;-72
2023/01/12 02:23:24;;;;;;;;;;;19.90;60.50;;;;;;1586378;74;1130;-71
2023/01/12 02:25:30;;;;;;;;;;;19.90;60.60;;;;;;1580266;74;756;-71
2023/01/12 02:27:37;;;;;;;;;;;19.90;60.70;;;;;;1588518;73;1874;-71
2023/01/12 02:29:43;;;;;;;;;;;19.90;60.80;;;;;;1573851;73;1661;-71
2023/01/12 02:31:56;;;;;;;;;;;19.90;60.90;;;;;;1590245;73;1165;-69
2023/01/12 02:34:02;;;;;;;;;;;19.90;61.00;;;;;;1576076;74;1927;-71
2023/01/12 02:36:08;;;;;;;;;;;19.90;60.90;;;;;;1573936;74;1194;-71
2023/01/12 02:38:18;;;;;;;;;;;20.10;60.40;;;;;;1571421;74;1902;-70
2023/01/12 02:40:24;;;;;;;;;;;20.20;60.00;;;;;;1571932;74;748;-70
2023/01/12 02:42:49;;;;;;;;;;;20.20;59.60;;;;;;1579783;73;1137;-72
2023/01/12 02:44:56;;;;;;;;;;;20.20;59.30;;;;;;1577546;74;1603;-69
2023/01/12 02:46:58;;;;;;;;;;;20.30;59.10;;;;;;1559238;74;1545;-69
2023/01/12 02:49:04;;;;;;;;;;;20.30;58.90;;;;;;1577887;74;733;-71
2023/01/12 02:51:07;;;;;;;;;;;20.40;58.70;;;;;;1571583;74;734;-70
2023/01/12 02:53:11;;;;;;;;;;;20.40;58.60;;;;;;1569329;74;1120;-71
2023/01/12 02:55:13;;;;;;;;;;;20.40;58.50;;;;;;1578960;73;1924;-71
2023/01/12 02:57:15;;;;;;;;;;;20.40;58.50;;;;;;1581246;74;872;-71
2023/01/12 02:59:19;;;;;;;;;;;20.50;58.40;;;;;;1583398;74;759;-71
2023/01/12 03:01:21;;;;;;;;;;;20.50;58.30;;;;;;1571416;74;738;-71
2023/01/12 03:03:22;;;;;;;;;;;20.50;58.30;;;;;;1575010;74;1146;-71
2023/01/12 03:05:24;;;;;;;;;;;20.50;58.20;;;;;;1577894;74;736;-72
2023/01/12 03:07:31;;;;;;;;;;;20.50;58.20;;;;;;1571480;74;709;-71
2023/01/12 03:09:37;;;;;;;;;;;20.60;58.10;;;;;;1580208;74;735;-70
2023/01/12 03:11:39;;;;;;;;;;;20.50;58.00;;;;;;1599322;74;806;-71
2023/01/12 03:13:46;;;;;;;;;;;20.50;57.40;;;;;;1569700;73;1121;-70
2023/01/12 03:15:49;;;;;;;;;;;20.60;57.40;;;;;;1582788;74;1918;-71
2023/01/12 03:17:55;;;;;;;;;;;20.50;57.40;;;;;;1574840;74;875;-70
2023/01/12 03:19:59;;;;;;;;;;;20.60;57.40;;;;;;1584796;74;975;-71
2023/01/12 03:22:02;;;;;;;;;;;20.60;57.40;;;;;;1563207;74;1160;-71
2023/01/12 03:24:06;;;;;;;;;;;20.60;57.40;;;;;;1566677;74;1030;-69
2023/01/12 03:26:08;;;;;;;;;;;20.50;57.30;;;;;;1600157;74;755;-71
2023/01/12 03:28:10;;;;;;;;;;;20.50;57.30;;;;;;1572853;74;839;-71
2023/01/12 03:30:13;;;;;;;;;;;20.60;57.30;;;;;;1584171;74;824;-72
2023/01/12 03:32:15;;;;;;;;;;;20.50;57.30;;;;;;1572383;74;1127;-71
2023/01/12 03:34:16;;;;;;;;;;;20.60;57.20;;;;;;1581697;74;1933;-70
2023/01/12 03:36:27;;;;;;;;;;;20.60;57.10;;;;;;1577489;74;902;-72
2023/01/12 03:38:36;;;;;;;;;;;20.60;57.10;;;;;;1577061;74;843;-72
2023/01/12 03:40:39;;;;;;;;;;;20.60;57.20;;;;;;1585316;74;797;-72
2023/01/12 03:42:42;;;;;;;;;;;20.60;57.20;;;;;;1571418;73;1537;-72
2023/01/12 03:44:49;;;;;;;;;;;20.60;57.20;;;;;;1562062;74;1667;-71
2023/01/12 03:46:52;;;;;;;;;;;20.60;57.10;;;;;;1571070;74;1994;-70
2023/01/12 03:48:55;;;;;;;;;;;20.60;57.40;;;;;;1565223;74;729;-68
2023/01/12 03:50:58;;;;;;;;;;;20.60;57.40;;;;;;1579138;74;633;-69
2023/01/12 03:53:01;;;;;;;;;;;20.60;57.50;;;;;;1573380;74;1155;-70
2023/01/12 03:55:03;;;;;;;;;;;20.60;57.30;;;;;;1580977;74;1949;-70
2023/01/12 03:57:05;;;;;;;;;;;20.70;57.40;;;;;;1578981;74;710;-70
2023/01/12 03:59:08;;;;;;;;;;;20.60;57.30;;;;;;1571302;74;836;-70
2023/01/12 04:01:10;;;;;;;;;;;20.60;57.30;;;;;;1584576;74;740;-69
2023/01/12 04:03:13;;;;;;;;;;;20.60;57.30;;;;;;1574991;74;1168;-70
2023/01/12 04:05:15;;;;;;;;;;;20.60;57.20;;;;;;1584801;74;776;-71
2023/01/12 04:07:16;;;;;;;;;;;20.60;57.20;;;;;;1571700;74;769;-71
2023/01/12 04:09:21;;;;;;;;;;;20.60;57.10;;;;;;1580945;74;816;-71
2023/01/12 04:13:42;;;;;;;;;;;20.60;57.30;;;;;;1569935;74;1659;-70
2023/01/12 04:15:44;;;;;;;;;;;20.70;57.50;;;;;;1572891;74;1943;-69
2023/01/12 04:17:46;;;;;;;;;;;20.70;57.40;;;;;;1570363;74;739;-68
2023/01/12 04:19:47;;;;;;;;;;;20.60;57.50;;;;;;1580382;74;776;-69
2023/01/12 04:24:09;;;;;;;;;;;20.60;57.50;;;;;;1576230;74;1631;-70
2023/01/12 04:26:11;;;;;;;;;;;20.60;57.50;;;;;;1567078;74;799;-70
2023/01/12 04:28:15;;;;;;;;;;;20.60;58.00;;;;;;1567941;74;867;-69
2023/01/12 04:30:17;;;;;;;;;;;20.60;58.00;;;;;;1574562;74;1667;-71
2023/01/12 04:32:19;;;;;;;;;;;20.60;58.00;;;;;;1580328;74;1154;-70
2023/01/12 04:34:21;;;;;;;;;;;20.60;57.50;;;;;;1571723;74;699;-72
2023/01/12 04:36:23;;;;;;;;;;;20.60;58.10;;;;;;1571240;74;1981;-71
2023/01/12 04:38:25;;;;;;;;;;;20.50;58.10;;;;;;1577457;74;1512;-71
2023/01/12 04:40:26;;;;;;;;;;;20.50;58.20;;;;;;1568827;74;741;-70
2023/01/12 04:44:48;;;;;;;;;;;20.50;58.40;;;;;;1591759;70;229420;-66
2023/01/12 04:46:50;;;;;;;;;;;20.40;58.40;;;;;;1598141;72;665;-67
2023/01/12 04:48:52;;;;;;;;;;;20.40;58.30;;;;;;1606068;72;806;-68
2023/01/12 04:50:54;;;;;;;;;;;20.40;58.40;;;;;;1603669;72;633;-69
2023/01/12 04:52:56;;;;;;;;;;;20.30;58.50;;;;;;1604750;73;1021;-67
2023/01/12 04:54:58;;;;;;;;;;;20.30;58.60;;;;;;1600563;73;1931;-67
2023/01/12 04:57:00;;;;;;;;;;;20.30;58.70;;;;;;1592283;72;709;-66
2023/01/12 04:59:02;;;;;;;;;;;20.30;59.40;;;;;;1600194;73;694;-67
2023/01/12 05:01:11;;;;;;;;;;;20.30;59.00;;;;;;1601017;73;1094;-67
2023/01/12 05:03:13;;;;;;;;;;;20.40;58.90;;;;;;1597391;73;1225;-68
2023/01/12 05:05:15;;;;;;;;;;;20.40;58.60;;;;;;1602875;72;781;-68
2023/01/12 05:07:17;;;;;;;;;;;20.40;58.50;;;;;;1599839;73;772;-67
2023/01/12 05:11:38;;;;;;;;;;;20.30;58.50;;;;;;1598031;72;729;-68
2023/01/12 05:13:40;;;;;;;;;;;20.40;58.50;;;;;;1600011;72;1172;-68
2023/01/12 05:15:42;;;;;;;;;;;20.40;58.60;;;;;;1599094;73;1961;-68
2023/01/12 05:17:44;;;;;;;;;;;20.40;58.40;;;;;;1600455;73;804;-67
2023/01/12 05:19:48;;;;;;;;;;;20.30;58.50;;;;;;1602690;73;741;-66
2023/01/12 05:21:49;;;;;;;;;;;20.30;59.00;;;;;;1605479;73;819;-67
2023/01/12 05:23:51;;;;;;;;;;;20.30;58.60;;;;;;1610473;72;1136;-68
2023/01/12 05:25:53;;;;;;;;;;;20.30;58.70;;;;;;1596847;72;719;-68
2023/01/12 05:27:56;;;;;;;;;;;20.30;58.60;;;;;;1561800;75;1136;-69
2023/01/12 05:29:58;;;;;;;;;;;20.30;58.70;;;;;;1597799;72;700;-68
2023/01/12 05:32:00;;;;;;;;;;;20.30;58.70;;;;;;1602952;72;699;-68
2023/01/12 05:34:02;;;;;;;;;;;20.30;58.60;;;;;;1610621;73;1135;-69
2023/01/12 05:36:05;;;;;;;;;;;20.30;58.60;;;;;;1602733;72;1936;-69
2023/01/12 05:38:06;;;;;;;;;;;20.30;58.50;;;;;;1606759;72;803;-67
2023/01/12 05:40:09;;;;;;;;;;;20.30;58.50;;;;;;1601240;72;719;-69
2023/01/12 05:44:31;;;;;;;;;;;20.40;58.60;;;;;;1598964;72;1605;-67
2023/01/12 05:46:33;;;;;;;;;;;20.40;58.30;;;;;;1601505;73;664;-68
2023/01/12 05:48:34;;;;;;;;;;;20.40;58.50;;;;;;1601897;73;720;-69
2023/01/12 05:50:36;;;;;;;;;;;20.40;58.30;;;;;;1600344;72;768;-67
2023/01/12 05:52:38;;;;;;;;;;;20.40;58.20;;;;;;1594450;73;747;-67
2023/01/12 05:54:40;;;;;;;;;;;20.50;58.20;;;;;;1596212;73;1172;-67
2023/01/12 05:56:42;;;;;;;;;;;20.50;58.20;;;;;;1599273;73;1937;-67
2023/01/12 05:58:52;;;;;;;;;;;20.40;58.20;;;;;;1599311;73;774;-67
2023/01/12 06:00:53;;;;;;;;;;;20.50;58.40;;;;;;1601584;73;1760;-68
2023/01/12 06:02:55;;;;;;;;;;;20.50;58.50;;;;;;1599046;73;745;-66
2023/01/12 06:04:57;;;;;;;;;;;20.40;59.00;;;;;;1596890;73;1050;-70
2023/01/12 06:06:59;;;;;;;;;;;20.40;59.00;;;;;;1597284;73;686;-67
2023/01/12 06:09:01;;;;;;;;;;;20.30;59.30;;;;;;1598458;72;646;-67
2023/01/12 06:11:03;;;;;;;;;;;20.30;59.60;;;;;;1597564;72;712;-66
2023/01/12 06:15:25;;;;;;;;;;;20.30;59.50;;;;;;1596973;73;1897;-69
2023/01/12 06:17:26;;;;;;;;;;;20.40;59.30;;;;;;1601955;73;788;-69
2023/01/12 06:19:28;;;;;;;;;;;20.30;59.10;;;;;;1599847;73;768;-68
2023/01/12 06:21:31;;;;;;;;;;;20.30;59.00;;;;;;1603745;72;754;-67
2023/01/12 06:23:33;;;;;;;;;;;20.30;58.90;;;;;;1605411;72;1153;-70
2023/01/12 06:25:35;;;;;;;;;;;20.30;58.70;;;;;;1600088;73;718;-69
2023/01/12 06:27:37;;;;;;;;;;;20.30;58.70;;;;;;1599736;74;694;-69
2023/01/12 06:29:39;;;;;;;;;;;20.40;58.50;;;;;;1598455;73;763;-68
2023/01/12 06:31:42;;;;;;;;;;;20.40;58.20;;;;;;1600010;73;1419;-70
2023/01/12 06:33:44;;;;;;;;;;;20.50;58.60;;;;;;1601702;73;1139;-68
2023/01/12 06:35:50;;;;;;;;;;;20.40;58.50;;;;;;1601201;72;1936;-67
2023/01/12 06:37:53;;;;;;;;;;;20.40;58.60;;;;;;1599930;73;758;-67
2023/01/12 06:39:55;;;;;;;;;;;20.40;58.80;;;;;;1600682;73;1718;-67
2023/01/12 06:44:16;;;;;;;;;;;20.40;58.50;;;;;;1599583;73;1638;-67
2023/01/12 06:46:18;;;;;;;;;;;20.30;58.40;;;;;;1596961;72;751;-67
2023/01/12 06:48:25;;;;;;;;;;;20.30;58.40;;;;;;1599593;73;720;-68
2023/01/12 06:50:24;;;;;;;;;;;20.30;58.40;;;;;;1598458;72;1483;-67
2023/01/12 06:52:27;;;;;;;;;;;20.30;58.30;;;;;;1600442;73;648;-68
2023/01/12 06:54:29;;;;;;;;;;;20.30;58.30;;;;;;1602680;72;1152;-70
2023/01/12 06:56:31;;;;;;;;;;;20.30;58.20;;;;;;1600308;72;1904;-66
2023/01/12 06:58:33;;;;;;;;;;;20.20;58.00;;;;;;1599485;73;714;-66
2023/01/12 07:00:35;;;;;;;;;;;20.30;58.10;;;;;;1600414;73;767;-66
2023/01/12 07:02:37;;;;;;;;;;;20.30;58.00;;;;;;1600721;73;626;-65
2023/01/12 07:04:42;;;;;;;;;;;20.30;57.40;;;;;;1599839;73;1145;-68
2023/01/12 07:06:44;;;;;;;;;;;20.40;57.40;;;;;;1600254;72;748;-68
2023/01/12 07:08:46;;;;;;;;;;;20.30;57.40;;;;;;1599096;72;789;-67
2023/01/12 07:10:48;;;;;;;;;;;20.20;57.20;;;;;;1598503;73;722;-68
2023/01/12 07:12:50;;;;;;;;;;;20.20;57.10;;;;;;1599821;72;784;-67
2023/01/12 07:14:51;;;;;;;;;;;20.20;57.20;;;;;;1600148;72;1200;-69
2023/01/12 07:16:53;;;;;;;;;;;20.20;57.20;;;;;;1599429;73;1934;-64
2023/01/12 07:18:55;;;;;;;;;;;20.20;57.80;;;;;;1597490;74;806;-68
2023/01/12 07:20:57;;;;;;;;;;;20.20;57.30;;;;;;1606926;73;777;-68
2023/01/12 07:22:59;;;;;;;;;;;20.20;57.20;;;;;;1597576;73;782;-67
2023/01/12 07:25:01;;;;;;;;;;;20.20;57.20;;;;;;1602661;72;1077;-67
2023/01/12 07:27:03;;;;;;;;;;;20.20;57.30;;;;;;1599326;73;660;-66
2023/01/12 07:29:05;;;;;;;;;;;20.20;57.20;;;;;;1600928;73;713;-68
2023/01/12 07:31:07;;;;;;;;;;;20.20;57.20;;;;;;1599680;73;669;-64
2023/01/12 07:33:11;;;;;;;;;;;20.10;57.30;;;;;;1598488;73;1207;-66
2023/01/12 07:35:12;;;;;;;;;;;20.10;56.90;;;;;;1598255;73;708;-67
2023/01/12 07:37:14;;;;;;;;;;;20.20;55.70;;;;;;1600731;72;1937;-66
2023/01/12 07:39:16;;;;;;;;;;;20.10;56.10;;;;;;1600268;72;702;-70
2023/01/12 07:43:38;;;;;;;;;;;20.10;56.50;;;;;;1599394;73;1127;-70
2023/01/12 07:45:40;;;;;;;;;;;20.10;56.50;;;;;;1600641;73;793;-68
2023/01/12 07:47:42;;;;;;;;;;;20.20;56.30;;;;;;1596758;73;795;-71
2023/01/12 07:49:44;;;;;;;;;;;20.30;56.10;;;;;;1600032;73;883;-69
2023/01/12 07:51:46;;;;;;;;;;;20.40;55.90;;;;;;1599962;73;707;-70
2023/01/12 07:53:48;;;;;;;;;;;20.40;55.80;;;;;;1601118;73;1155;-69
2023/01/12 07:55:50;;;;;;;;;;;20.50;55.80;;;;;;1600513;73;1921;-70
2023/01/12 07:57:56;;;;;;;;;;;20.50;55.70;;;;;;1603479;72;736;-69
2023/01/12 07:59:58;;;;;;;;;;;20.50;55.50;;;;;;1599263;72;751;-69
2023/01/12 08:02:00;;;;;;;;;;;20.50;55.30;;;;;;1597865;72;650;-69
2023/01/12 08:04:02;;;;;;;;;;;20.60;55.20;;;;;;1598494;73;1147;-70
2023/01/12 08:06:04;;;;;;;;;;;20.60;55.10;;;;;;1597622;72;775;-71
2023/01/12 08:08:06;;;;;;;;;;;20.60;55.00;;;;;;1598946;73;638;-71
2023/01/12 08:10:09;;;;;;;;;;;20.60;54.90;;;;;;1599834;73;742;-72
2023/01/12 08:12:11;;;;;;;;;;;20.60;54.90;;;;;;1603819;73;753;-69
2023/01/12 08:14:14;;;;;;;;;;;20.70;55.10;;;;;;1601343;73;1208;-70
2023/01/12 08:16:18;;;;;;;;;;;20.60;55.10;;;;;;1599700;73;1919;-68
2023/01/12 08:18:24;;;;;;;;;;;20.60;55.20;;;;;;1600944;72;730;-70
2023/01/12 08:20:30;;;;;;;;;;;20.60;55.10;;;;;;1597043;72;838;-73
2023/01/12 08:22:33;;;;;;;;;;;20.60;55.00;;;;;;1601360;74;723;-70
2023/01/12 08:24:36;;;;;;;;;;;20.60;54.90;;;;;;1603777;73;1442;-69
2023/01/12 08:26:38;;;;;;;;;;;20.70;55.00;;;;;;1606892;73;776;-70
2023/01/12 08:28:42;;;;;;;;;;;20.70;55.00;;;;;;1602070;72;718;-69
2023/01/12 08:30:45;;;;;;;;;;;20.60;54.80;;;;;;1599972;72;726;-71
2023/01/12 08:32:47;;;;;;;;;;;20.60;54.80;;;;;;1600344;73;768;-73
2023/01/12 08:34:49;;;;;;;;;;;20.60;54.70;;;;;;1601574;73;1128;-67
2023/01/12 08:36:51;;;;;;;;;;;20.60;54.70;;;;;;1599557;72;1930;-67
2023/01/12 08:38:53;;;;;;;;;;;20.60;54.70;;;;;;1596997;72;716;-66
2023/01/12 08:44:00;;;;;;;;;;;20.70;54.80;;;;;;1596945;73;1654;-68
2023/01/12 08:45:19;;;;;;;;;;;20.60;54.70;;;;;;1597422;73;1040;-68
2023/01/12 08:47:29;;;;;;;;;;;20.60;54.70;;;;;;1599718;72;773;-69
2023/01/12 08:49:31;;;;;;;;;;;20.60;54.70;;;;;;1600258;73;698;-67
2023/01/12 08:51:33;;;;;;;;;;;20.60;54.70;;;;;;1601112;73;725;-69
2023/01/12 08:53:34;;;;;;;;;;;20.60;54.80;;;;;;1599599;73;1156;-67
2023/01/12 08:55:36;;;;;;;;;;;20.60;54.80;;;;;;1598470;72;744;-66
2023/01/12 08:57:38;;;;;;;;;;;20.60;54.80;;;;;;1600728;73;1940;-69
2023/01/12 08:59:40;;;;;;;;;;;20.60;54.80;;;;;;1599168;73;705;-72
2023/01/12 09:01:42;;;;;;;;;;;20.60;54.80;;;;;;1599412;73;786;-69
2023/01/12 09:03:44;;;;;;;;;;;20.60;54.70;;;;;;1600415;73;1140;-71
2023/01/12 09:05:47;;;;;;;;;;;20.60;54.80;;;;;;1600628;73;803;-67
2023/01/12 09:07:49;;;;;;;;;;;20.60;54.80;;;;;;1600344;73;752;-68
2023/01/12 09:09:51;;;;;;;;;;;20.60;54.70;;;;;;1600160;72;745;-77
2023/01/12 09:11:53;;;;;;;;;;;20.60;54.80;;;;;;1599671;72;628;-69
2023/01/12 09:13:58;;;;;;;;;;;20.60;54.70;;;;;;1600816;73;1164;-69
2023/01/12 09:16:06;;;;;;;;;;;20.60;54.80;;;;;;1599270;73;610;-69
2023/01/12 09:18:08;;;;;;;;;;;20.60;54.70;;;;;;1601601;73;718;-69
2023/01/12 09:20:10;;;;;;;;;;;20.60;54.80;;;;;;1599019;72;1306;-71
2023/01/12 09:22:12;;;;;;;;;;;20.50;54.80;;;;;;1600157;73;728;-68
2023/01/12 09:24:14;;;;;;;;;;;20.60;54.90;;;;;;1596541;73;1165;-72
2023/01/12 09:26:20;;;;;;;;;;;20.60;54.90;;;;;;1599326;73;710;-68
2023/01/12 09:28:22;;;;;;;;;;;20.60;54.80;;;;;;1597694;73;736;-69
2023/01/12 09:30:24;;;;;;;;;;;20.60;54.80;;;;;;1598499;73;753;-69
2023/01/12 09:32:26;;;;;;;;;;;20.50;54.80;;;;;;1599713;73;686;-69
2023/01/12 09:34:28;;;;;;;;;;;20.50;54.90;;;;;;1601795;73;1135;-70
2023/01/12 09:36:31;;;;;;;;;;;20.50;54.80;;;;;;1598526;73;1921;-68
2023/01/12 09:38:34;;;;;;;;;;;20.50;54.80;;;;;;1558109;74;751;-69
2023/01/12 09:40:36;;;;;;;;;;;20.50;54.90;;;;;;1598545;73;1027;-70
2023/01/12 09:47:38;;;;;;;;;;;20.50;54.90;;;;;;1599865;73;1591;-69
2023/01/12 09:49:40;;;;;;;;;;;20.50;54.90;;;;;;1598350;73;1497;-70
2023/01/12 09:51:43;;;;;;;;;;;20.50;55.00;;;;;;1599957;73;711;-69
2023/01/12 09:53:45;;;;;;;;;;;20.50;55.00;;;;;;1594867;72;1132;-71
2023/01/12 09:55:49;;;;;;;;;;;20.50;55.00;;;;;;1598294;73;803;-69
2023/01/12 09:57:58;;;;;;;;;;;20.50;55.00;;;;;;1600170;73;1915;-72
2023/01/12 10:00:05;;;;;;;;;;;20.50;55.00;;;;;;1598322;73;714;-68
2023/01/12 10:02:11;;;;;;;;;;;20.50;55.00;;;;;;1599350;73;779;-68
2023/01/12 10:04:13;;;;;;;;;;;20.50;55.00;;;;;;1599409;72;1140;-68
2023/01/12 10:06:15;;;;;;;;;;;20.40;55.00;;;;;;1600648;73;722;-69
2023/01/12 10:08:28;;;;;;;;;;;20.40;55.20;;;;;;1600255;73;713;-68
2023/01/12 10:10:30;;;;;;;;;;;20.30;55.30;;;;;;1599795;73;776;-69
2023/01/12 10:12:40;;;;;;;;;;;20.20;55.40;;;;;;1603266;73;725;-72
2023/01/12 10:14:58;;;;;;;;;;;20.10;55.70;;;;;;1595391;72;1195;-69
2023/01/12 10:17:11;;;;;;;;;;;20.10;55.70;;;;;;1597125;73;1922;-71
2023/01/12 10:19:33;;;;;;;;;;;20.10;55.60;;;;;;1595064;73;731;-71
2023/01/12 10:21:35;;;;;;;;;;;20.10;55.10;;;;;;1599592;72;1828;-73
2023/01/12 10:23:36;;;;;;;;;;;20.00;55.10;;;;;;1597661;73;1135;-69
2023/01/12 10:25:39;;;;;;;;;;;20.00;55.20;;;;;;1598747;73;718;-71
2023/01/12 10:27:42;;;;;;;;;;;20.00;55.30;;;;;;1601140;73;702;-70
2023/01/12 10:29:44;;;;;;;;;;;19.90;55.30;;;;;;1597444;73;718;-71
2023/01/12 10:31:45;;;;;;;;;;;19.90;55.40;;;;;;1598684;73;723;-71
2023/01/12 10:33:49;;;;;;;;;;;19.90;55.40;;;;;;1599497;73;1167;-70
2023/01/12 10:36:10;;;;;;;;;;;19.90;55.80;;;;;;1588050;73;1036;-67
2023/01/12 10:38:16;;;;;;;;;;;20.00;55.60;;;;;;1598191;73;1936;-67
2023/01/12 10:40:22;;;;;;;;;;;20.10;55.20;;;;;;1598046;73;2118;-69
2023/01/12 10:44:44;;;;;;;;;;;20.30;54.70;;;;;;1585306;72;3024;-68
2023/01/12 10:46:48;;;;;;;;;;;20.30;54.50;;;;;;1570845;74;797;-69
2023/01/12 10:48:50;;;;;;;;;;;20.30;54.40;;;;;;1559478;74;1346;-68
2023/01/12 10:50:59;;;;;;;;;;;20.30;54.30;;;;;;1573342;74;739;-68
2023/01/12 10:53:02;;;;;;;;;;;20.30;54.30;;;;;;1567576;74;716;-68
2023/01/12 10:55:03;;;;;;;;;;;20.30;54.10;;;;;;1556538;74;1168;-68
2023/01/12 10:57:07;;;;;;;;;;;20.40;54.10;;;;;;1559654;74;1929;-69
2023/01/12 10:59:13;;;;;;;;;;;20.30;54.00;;;;;;1554252;74;1550;-68
2023/01/12 11:01:15;;;;;;;;;;;20.40;53.90;;;;;;1560335;74;798;-69
2023/01/12 11:03:25;;;;;;;;;;;20.40;53.90;;;;;;1559338;74;766;-69
2023/01/12 11:05:30;;;;;;;;;;;20.40;53.90;;;;;;1564515;74;2251;-68
2023/01/12 11:07:35;;;;;;;;;;;20.40;53.90;;;;;;1563162;74;802;-69
2023/01/12 11:09:36;;;;;;;;;;;20.40;53.90;;;;;;1558690;74;1657;-68
2023/01/12 11:11:38;;;;;;;;;;;20.40;53.90;;;;;;1576010;74;934;-68
2023/01/12 11:13:40;;;;;;;;;;;20.40;54.00;;;;;;1571105;74;1744;-69
2023/01/12 11:15:41;;;;;;;;;;;20.40;53.90;;;;;;1561029;74;741;-68
2023/01/12 11:18:01;;;;;;;;;;;20.40;53.90;;;;;;1546549;75;1948;-69
2023/01/12 11:20:04;;;;;;;;;;;20.30;53.90;;;;;;1569333;74;783;-69
2023/01/12 11:22:14;;;;;;;;;;;20.40;53.90;;;;;;1582525;74;780;-68
2023/01/12 11:24:36;;;;;;;;;;;20.40;53.90;;;;;;1571614;74;1165;-69
2023/01/12 11:26:58;;;;;;;;;;;20.40;53.90;;;;;;1579580;74;1960;-68
2023/01/12 11:29:01;;;;;;;;;;;20.30;53.90;;;;;;1573654;74;759;-68
2023/01/12 11:31:21;;;;;;;;;;;20.30;54.00;;;;;;1568021;74;893;-69
2023/01/12 11:33:24;;;;;;;;;;;20.40;54.00;;;;;;1565944;74;723;-68
2023/01/12 11:35:37;;;;;;;;;;;20.30;54.10;;;;;;1557162;74;1242;-68
2023/01/12 11:37:39;;;;;;;;;;;20.30;54.10;;;;;;1580029;74;1913;-68
2023/01/12 11:39:41;;;;;;;;;;;20.30;54.10;;;;;;1582829;74;770;-68
2023/01/12 11:43:47;;;;;;;;;;;20.30;54.10;;;;;;1576029;74;640;-68
2023/01/12 11:43:54;;;;;;;;;;;20.30;54.10;;;;;;1566238;74;1379;-69
2023/01/12 11:46:00;;;;;;;;;;;20.40;54.10;;;;;;1565075;74;1633;-68
2023/01/12 11:48:04;;;;;;;;;;;20.30;54.20;;;;;;1575567;74;1628;-68
2023/01/12 11:50:16;;;;;;;;;;;20.30;54.10;;;;;;1579950;74;2212;-68
2023/01/12 11:52:18;;;;;;;;;;;20.30;54.20;;;;;;1567048;74;767;-68
2023/01/12 11:54:20;;;;;;;;;;;20.30;54.20;;;;;;1567684;74;1165;-68
2023/01/12 11:56:30;;;;;;;;;;;20.20;54.00;;;;;;1570051;74;712;-69
2023/01/12 11:58:48;;;;;;;;;;;20.30;54.20;;;;;;1574240;74;1922;-69
2023/01/12 12:00:52;;;;;;;;;;;20.40;54.20;;;;;;1564998;74;1719;-69
2023/01/12 12:02:55;;;;;;;;;;;20.30;54.30;;;;;;1579194;74;2013;-68
2023/01/12 12:05:05;;;;;;;;;;;20.20;54.20;;;;;;1578536;74;1794;-68
2023/01/12 12:07:09;;;;;;;;;;;20.20;54.20;;;;;;1578031;74;807;-68
2023/01/12 12:09:27;;;;;;;;;;;20.20;54.20;;;;;;1574839;74;1668;-68
2023/01/12 12:11:37;;;;;;;;;;;20.30;54.20;;;;;;1579261;74;1865;-68
2023/01/12 12:13:43;;;;;;;;;;;20.30;54.20;;;;;;1579324;74;1502;-69
2023/01/12 12:15:47;;;;;;;;;;;20.30;54.20;;;;;;1568485;74;1852;-68
2023/01/12 12:17:56;;;;;;;;;;;20.20;54.00;;;;;;1570863;74;1945;-68
2023/01/12 12:20:19;;;;;;;;;;;20.30;54.20;;;;;;1580823;74;1956;-68
2023/01/12 12:22:28;;;;;;;;;;;20.30;54.20;;;;;;1559796;74;793;-68
2023/01/12 12:24:40;;;;;;;;;;;20.30;54.20;;;;;;1561026;74;1920;-68
2023/01/12 12:26:46;;;;;;;;;;;20.30;54.30;;;;;;1571995;74;1291;-68
2023/01/12 12:28:49;;;;;;;;;;;20.30;54.30;;;;;;1565308;74;1879;-68
2023/01/12 12:31:02;;;;;;;;;;;20.20;54.20;;;;;;1563183;74;1883;-68
2023/01/12 12:33:08;;;;;;;;;;;20.20;54.20;;;;;;1575441;74;766;-68
2023/01/12 12:35:27;;;;;;;;;;;20.20;54.30;;;;;;1562613;74;1708;-68
2023/01/12 12:37:43;;;;;;;;;;;20.20;54.20;;;;;;1563299;74;1966;-68
2023/01/12 12:39:46;;;;;;;;;;;20.20;54.20;;;;;;1567258;74;1926;-73
2023/01/12 12:46:54;;;;;;;;;;;20.20;54.30;;;;;;1563036;74;1648;-68
2023/01/12 12:48:57;;;;;;;;;;;20.10;54.40;;;;;;1576680;74;710;-68
2023/01/12 12:51:03;;;;;;;;;;;20.10;54.40;;;;;;1564522;74;745;-69
2023/01/12 12:53:12;;;;;;;;;;;20.10;54.50;;;;;;1561167;74;794;-68
2023/01/12 12:55:14;;;;;;;;;;;20.10;54.40;;;;;;1561038;74;1335;-68
2023/01/12 12:57:16;;;;;;;;;;;20.10;54.40;;;;;;1560634;74;1944;-69
2023/01/12 12:59:32;;;;;;;;;;;20.20;54.40;;;;;;1560819;74;731;-68
2023/01/12 13:01:35;;;;;;;;;;;20.20;54.40;;;;;;1564867;74;777;-68